Time;durP1;ratioP1;P1;durP2;ratioP2;P2;SDS_P1;SDS_P2;PMS_P1;PMS_P2;Temp;Humidity;BMP_temperature;BMP_pressure;BME280_temperature;BME280_humidity;BME280_pressure;Samples;Min_cycle;Max_cycle;Signal;HPM_P1;HPM_P2
2021/01/19 00:01:57;;;;;;;2.70;1.83;;;;;;;;;;4893382;28;105143;-57
2021/01/19 00:04:22;;;;;;;3.42;1.88;;;;;;;;;;4894003;28;111174;-57
2021/01/19 00:06:47;;;;;;;2.35;1.80;;;;;;;;;;4892916;28;105441;-57
2021/01/19 00:09:13;;;;;;;2.88;2.00;;;;;;;;;;4894614;28;104968;-57
2021/01/19 00:11:38;;;;;;;2.95;1.95;;;;;;;;;;4893523;28;105500;-57
2021/01/19 00:14:04;;;;;;;4.45;2.03;;;;;;;;;;4893341;28;105642;-58
2021/01/19 00:16:29;;;;;;;2.80;1.80;;;;;;;;;;4894360;28;105156;-57
2021/01/19 00:18:55;;;;;;;3.17;1.98;;;;;;;;;;4892841;28;104939;-58
2021/01/19 00:21:20;;;;;;;3.40;1.95;;;;;;;;;;4898582;28;106291;-56
2021/01/19 00:23:46;;;;;;;2.70;2.00;;;;;;;;;;4898992;28;105442;-58
2021/01/19 00:26:11;;;;;;;2.60;1.85;;;;;;;;;;4894642;28;105044;-58
2021/01/19 00:28:37;;;;;;;2.47;1.83;;;;;;;;;;4897763;28;106452;-57
2021/01/19 00:31:02;;;;;;;2.83;1.90;;;;;;;;;;4895750;28;116995;-58
2021/01/19 00:33:28;;;;;;;2.10;1.90;;;;;;;;;;4896243;28;104962;-57
2021/01/19 00:35:53;;;;;;;2.30;1.90;;;;;;;;;;4898653;28;105087;-57
2021/01/19 00:38:19;;;;;;;1.95;1.70;;;;;;;;;;4897500;28;104985;-58
2021/01/19 00:40:45;;;;;;;2.05;1.80;;;;;;;;;;4893235;28;107551;-57
2021/01/19 00:43:10;;;;;;;3.80;2.10;;;;;;;;;;4899407;28;105000;-57
2021/01/19 00:45:36;;;;;;;2.47;1.80;;;;;;;;;;4895860;28;112695;-59
2021/01/19 00:48:01;;;;;;;2.45;1.80;;;;;;;;;;4909224;28;105158;-58
2021/01/19 00:50:29;;;;;;;2.47;1.70;;;;;;;;;;4903794;28;105621;-58
2021/01/19 00:52:55;;;;;;;3.72;1.73;;;;;;;;;;4908524;28;107480;-58
2021/01/19 00:55:20;;;;;;;2.58;1.80;;;;;;;;;;4896040;28;104988;-57
2021/01/19 00:57:49;;;;;;;1.90;1.70;;;;;;;;;;4908988;28;106669;-58
2021/01/19 01:00:18;;;;;;;2.13;1.70;;;;;;;;;;4908171;28;106922;-57
2021/01/19 01:02:43;;;;;;;1.70;1.55;;;;;;;;;;4896021;28;105778;-55
2021/01/19 01:05:09;;;;;;;3.47;1.70;;;;;;;;;;4911547;28;109776;-57
2021/01/19 01:07:35;;;;;;;2.25;1.83;;;;;;;;;;4909404;28;105087;-57
2021/01/19 01:10:02;;;;;;;2.03;1.83;;;;;;;;;;4895722;28;105546;-57
2021/01/19 01:12:27;;;;;;;1.80;1.70;;;;;;;;;;4894555;28;105768;-57
2021/01/19 01:14:53;;;;;;;1.65;1.50;;;;;;;;;;4894893;28;105090;-57
2021/01/19 01:17:18;;;;;;;2.08;1.80;;;;;;;;;;4908038;28;105187;-57
2021/01/19 01:19:44;;;;;;;2.67;1.83;;;;;;;;;;4908640;28;108598;-58
2021/01/19 01:22:09;;;;;;;1.73;1.30;;;;;;;;;;4895621;28;104998;-57
2021/01/19 01:24:34;;;;;;;1.40;1.30;;;;;;;;;;4896269;28;111748;-57
2021/01/19 01:27:00;;;;;;;1.30;1.20;;;;;;;;;;4910615;28;105130;-58
2021/01/19 01:29:25;;;;;;;1.35;1.25;;;;;;;;;;4895283;28;111714;-56
2021/01/19 01:31:51;;;;;;;1.30;1.20;;;;;;;;;;4895305;28;105010;-57
2021/01/19 01:34:16;;;;;;;1.00;1.00;;;;;;;;;;4900372;28;105077;-58
2021/01/19 01:36:42;;;;;;;1.30;1.20;;;;;;;;;;4896167;28;112349;-58
2021/01/19 01:39:07;;;;;;;1.48;1.30;;;;;;;;;;4898563;28;105014;-57
2021/01/19 01:41:33;;;;;;;1.23;1.13;;;;;;;;;;4898942;28;105146;-58
2021/01/19 01:44:01;;;;;;;1.10;1.00;;;;;;;;;;4899225;28;105526;-58
2021/01/19 01:46:26;;;;;;;1.35;1.25;;;;;;;;;;4899243;28;105323;-57
2021/01/19 01:48:52;;;;;;;1.23;1.05;;;;;;;;;;4915596;28;105328;-57
2021/01/19 01:51:17;;;;;;;1.27;1.20;;;;;;;;;;4897876;28;104966;-58
2021/01/19 01:53:43;;;;;;;1.40;1.20;;;;;;;;;;4911955;28;105101;-57
2021/01/19 01:56:09;;;;;;;1.20;1.10;;;;;;;;;;4903456;28;114642;-58
2021/01/19 01:58:35;;;;;;;1.20;1.10;;;;;;;;;;4898546;28;105027;-58
2021/01/19 02:01:01;;;;;;;1.30;1.17;;;;;;;;;;4897862;28;105019;-58
2021/01/19 02:03:26;;;;;;;1.40;1.00;;;;;;;;;;4899117;28;105621;-58
2021/01/19 02:05:52;;;;;;;1.35;1.10;;;;;;;;;;4898425;28;105629;-57
2021/01/19 02:08:23;;;;;;;1.20;1.10;;;;;;;;;;4915190;28;105452;-57
2021/01/19 02:10:48;;;;;;;1.58;1.27;;;;;;;;;;4911723;28;105275;-58
2021/01/19 02:13:23;;;;;;;1.35;1.13;;;;;;;;;;4910893;28;106356;-58
2021/01/19 02:16:14;;;;;;;1.40;1.00;;;;;;;;;;4898864;28;105481;-58
2021/01/19 02:18:45;;;;;;;1.15;1.00;;;;;;;;;;4903087;28;105154;-58
2021/01/19 02:21:49;;;;;;;0.90;0.90;;;;;;;;;;4910976;28;105101;-58
2021/01/19 02:24:37;;;;;;;0.90;0.90;;;;;;;;;;4899225;28;105418;-58
2021/01/19 02:27:10;;;;;;;1.00;1.00;;;;;;;;;;4886213;28;105089;-58
2021/01/19 02:30:06;;;;;;;1.27;1.10;;;;;;;;;;4911432;28;104985;-58
2021/01/19 02:32:38;;;;;;;1.20;1.10;;;;;;;;;;4902041;28;104966;-58
2021/01/19 02:35:11;;;;;;;1.33;1.02;;;;;;;;;;4898102;28;104938;-58
2021/01/19 02:38:14;;;;;;;0.90;0.90;;;;;;;;;;4911135;28;105011;-59
2021/01/19 02:40:40;;;;;;;1.40;1.10;;;;;;;;;;4897762;28;104973;-58
2021/01/19 02:43:11;;;;;;;1.63;1.05;;;;;;;;;;4898060;28;105055;-58
2021/01/19 02:45:37;;;;;;;1.00;0.90;;;;;;;;;;4911219;28;105734;-60
2021/01/19 02:48:06;;;;;;;2.38;1.10;;;;;;;;;;4909747;28;105643;-58
2021/01/19 02:50:32;;;;;;;1.45;1.00;;;;;;;;;;4899684;28;105099;-58
2021/01/19 02:52:58;;;;;;;1.83;1.10;;;;;;;;;;4898980;28;106592;-58
2021/01/19 02:55:24;;;;;;;1.50;0.90;;;;;;;;;;4913629;28;105367;-58
2021/01/19 02:58:06;;;;;;;1.50;1.17;;;;;;;;;;4911169;28;110357;-58
2021/01/19 03:00:47;;;;;;;1.30;1.00;;;;;;;;;;4909870;28;105562;-58
2021/01/19 03:03:13;;;;;;;1.33;1.05;;;;;;;;;;4894539;28;105064;-58
2021/01/19 03:05:38;;;;;;;2.38;1.17;;;;;;;;;;4911083;28;105625;-58
2021/01/19 03:08:05;;;;;;;1.35;0.90;;;;;;;;;;4909873;28;105058;-57
2021/01/19 03:10:32;;;;;;;1.30;0.90;;;;;;;;;;4911193;28;105039;-57
2021/01/19 03:12:57;;;;;;;1.05;0.95;;;;;;;;;;4910557;28;105174;-58
2021/01/19 03:15:23;;;;;;;1.40;0.80;;;;;;;;;;4909848;28;105017;-57
2021/01/19 03:17:48;;;;;;;2.25;0.98;;;;;;;;;;4901421;28;104965;-56
2021/01/19 03:20:14;;;;;;;1.20;1.00;;;;;;;;;;4909333;28;115181;-57
2021/01/19 03:22:40;;;;;;;1.73;1.00;;;;;;;;;;4897914;28;105203;-57
2021/01/19 03:25:07;;;;;;;1.35;1.00;;;;;;;;;;4897272;28;105706;-58
2021/01/19 03:27:32;;;;;;;2.00;1.00;;;;;;;;;;4909820;28;105177;-57
2021/01/19 03:29:58;;;;;;;1.65;0.90;;;;;;;;;;4897477;28;105016;-57
2021/01/19 03:32:23;;;;;;;2.97;0.95;;;;;;;;;;4897233;28;106087;-58
2021/01/19 03:34:49;;;;;;;1.45;0.88;;;;;;;;;;4897607;28;106501;-58
2021/01/19 03:37:14;;;;;;;1.40;0.90;;;;;;;;;;4909779;28;106466;-58
2021/01/19 03:39:40;;;;;;;0.93;0.80;;;;;;;;;;4900862;28;105221;-57
2021/01/19 03:42:05;;;;;;;1.00;0.82;;;;;;;;;;4910026;28;105530;-57
2021/01/19 03:44:31;;;;;;;1.05;0.90;;;;;;;;;;4897877;28;105640;-57
2021/01/19 03:46:56;;;;;;;0.70;0.70;;;;;;;;;;4909268;28;108497;-58
2021/01/19 03:49:22;;;;;;;0.98;0.93;;;;;;;;;;4897289;28;104972;-58
2021/01/19 03:51:47;;;;;;;0.90;0.80;;;;;;;;;;4897966;28;105310;-57
2021/01/19 03:54:13;;;;;;;2.20;1.08;;;;;;;;;;4896357;28;105458;-57
2021/01/19 03:56:38;;;;;;;2.35;1.50;;;;;;;;;;4897418;28;105360;-57
2021/01/19 03:59:04;;;;;;;3.53;2.55;;;;;;;;;;4909224;28;105091;-57
2021/01/19 04:01:29;;;;;;;1.98;1.30;;;;;;;;;;4899969;28;104995;-57
2021/01/19 04:03:55;;;;;;;4.63;2.70;;;;;;;;;;4895844;28;105726;-57
2021/01/19 04:06:20;;;;;;;1.95;1.15;;;;;;;;;;4908589;28;108817;-57
2021/01/19 04:08:46;;;;;;;3.88;1.77;;;;;;;;;;4897532;28;105018;-57
2021/01/19 04:11:11;;;;;;;3.75;2.17;;;;;;;;;;4896494;28;105584;-57
2021/01/19 04:13:37;;;;;;;4.65;2.42;;;;;;;;;;4897074;28;105586;-58
2021/01/19 04:16:02;;;;;;;3.90;2.65;;;;;;;;;;4908811;22;105481;-58
2021/01/19 04:18:28;;;;;;;3.95;2.25;;;;;;;;;;4929825;28;105117;-58
2021/01/19 04:20:53;;;;;;;3.28;2.00;;;;;;;;;;4932505;28;105814;-58
2021/01/19 04:23:19;;;;;;;4.78;2.22;;;;;;;;;;4929853;28;105021;-56
2021/01/19 04:25:48;;;;;;;2.97;1.60;;;;;;;;;;4913301;28;106201;-57
2021/01/19 04:28:14;;;;;;;3.53;1.80;;;;;;;;;;4913209;28;104994;-58
2021/01/19 04:30:40;;;;;;;3.97;2.28;;;;;;;;;;4930999;28;104939;-58
2021/01/19 04:33:05;;;;;;;1.77;1.00;;;;;;;;;;4929993;28;105471;-57
2021/01/19 04:35:30;;;;;;;2.10;1.40;;;;;;;;;;4929176;28;105753;-57
2021/01/19 04:37:56;;;;;;;3.83;1.80;;;;;;;;;;4929445;28;118796;-58
2021/01/19 04:40:21;;;;;;;3.85;1.73;;;;;;;;;;4930321;28;105012;-57
2021/01/19 04:42:47;;;;;;;2.45;1.42;;;;;;;;;;4934703;28;105154;-58
2021/01/19 04:45:13;;;;;;;3.13;1.60;;;;;;;;;;4930400;28;105776;-58
2021/01/19 04:47:38;;;;;;;2.58;1.33;;;;;;;;;;4929885;28;105362;-57
2021/01/19 04:50:08;;;;;;;2.10;1.38;;;;;;;;;;4930510;28;106090;-58
2021/01/19 04:52:34;;;;;;;3.03;2.13;;;;;;;;;;4929280;28;105442;-58
2021/01/19 04:55:23;;;;;;;3.85;1.90;;;;;;;;;;4932096;28;104913;-58
2021/01/19 04:57:59;;;;;;;3.13;1.42;;;;;;;;;;4930224;28;105030;-57
2021/01/19 05:00:28;;;;;;;2.80;1.50;;;;;;;;;;4929773;28;105362;-58
2021/01/19 05:03:03;;;;;;;2.13;1.10;;;;;;;;;;4931001;28;104887;-58
2021/01/19 05:05:37;;;;;;;1.77;1.00;;;;;;;;;;4933537;28;105620;-57
2021/01/19 05:08:18;;;;;;;1.65;1.00;;;;;;;;;;4930510;28;105086;-57
2021/01/19 05:10:59;;;;;;;1.52;1.00;;;;;;;;;;4931439;28;105742;-57
2021/01/19 05:13:51;;;;;;;1.25;0.80;;;;;;;;;;4931540;28;105069;-57
2021/01/19 05:16:18;;;;;;;0.68;0.68;;;;;;;;;;4914944;28;105053;-58
2021/01/19 05:18:44;;;;;;;0.50;0.50;;;;;;;;;;4930094;28;105804;-57
2021/01/19 05:21:10;;;;;;;0.60;0.60;;;;;;;;;;4934294;28;105056;-58
2021/01/19 05:23:35;;;;;;;0.52;0.52;;;;;;;;;;4933985;28;105417;-58
2021/01/19 05:26:01;;;;;;;0.50;0.50;;;;;;;;;;4932744;28;105799;-57
2021/01/19 05:28:46;;;;;;;0.57;0.57;;;;;;;;;;4936625;28;105561;-58
2021/01/19 05:31:14;;;;;;;0.50;0.50;;;;;;;;;;4933789;28;104945;-58
2021/01/19 05:33:52;;;;;;;0.50;0.50;;;;;;;;;;4933040;28;105565;-58
2021/01/19 05:36:18;;;;;;;0.50;0.50;;;;;;;;;;4933231;28;105079;-57
2021/01/19 05:38:47;;;;;;;0.57;0.57;;;;;;;;;;4932955;28;105008;-57
2021/01/19 05:41:28;;;;;;;0.60;0.60;;;;;;;;;;4932247;28;106111;-58
2021/01/19 05:43:53;;;;;;;0.60;0.60;;;;;;;;;;4933681;28;105048;-58
2021/01/19 05:46:26;;;;;;;0.50;0.50;;;;;;;;;;4933716;28;105530;-57
2021/01/19 05:48:59;;;;;;;0.60;0.60;;;;;;;;;;4932345;28;105001;-58
2021/01/19 05:51:26;;;;;;;0.50;0.50;;;;;;;;;;4935259;28;105376;-58
2021/01/19 05:53:52;;;;;;;1.10;0.80;;;;;;;;;;4932445;28;105614;-57
2021/01/19 05:56:24;;;;;;;0.50;0.50;;;;;;;;;;4915787;28;105103;-58
2021/01/19 05:58:49;;;;;;;0.60;0.60;;;;;;;;;;4933402;28;104957;-58
2021/01/19 06:01:41;;;;;;;0.45;0.45;;;;;;;;;;4931195;28;105493;-57
2021/01/19 06:04:06;;;;;;;0.60;0.60;;;;;;;;;;4929423;28;105129;-58
2021/01/19 06:06:32;;;;;;;0.50;0.50;;;;;;;;;;4930901;28;114697;-58
2021/01/19 06:09:01;;;;;;;0.57;0.57;;;;;;;;;;4932058;28;116477;-58
2021/01/19 06:11:27;;;;;;;0.50;0.50;;;;;;;;;;4936221;28;104943;-57
2021/01/19 06:13:53;;;;;;;0.60;0.60;;;;;;;;;;4901776;28;105621;-58
2021/01/19 06:16:25;;;;;;;0.65;0.60;;;;;;;;;;4932252;28;105096;-58
2021/01/19 06:18:50;;;;;;;0.60;0.60;;;;;;;;;;4932544;28;105547;-58
2021/01/19 06:21:34;;;;;;;0.60;0.60;;;;;;;;;;4933153;28;105414;-59
2021/01/19 06:24:00;;;;;;;0.60;0.60;;;;;;;;;;4932600;28;105000;-58
2021/01/19 06:26:26;;;;;;;0.50;0.50;;;;;;;;;;4932347;28;105309;-57
2021/01/19 06:28:51;;;;;;;0.73;0.60;;;;;;;;;;4931407;28;105396;-56
2021/01/19 06:31:20;;;;;;;0.50;0.50;;;;;;;;;;4932881;28;105013;-58
2021/01/19 06:33:46;;;;;;;0.60;0.60;;;;;;;;;;4934913;28;105068;-58
2021/01/19 06:36:12;;;;;;;0.60;0.60;;;;;;;;;;4931871;28;105304;-57
2021/01/19 06:38:43;;;;;;;0.40;0.40;;;;;;;;;;4932034;28;113764;-57
2021/01/19 06:41:08;;;;;;;0.43;0.43;;;;;;;;;;4933169;28;105602;-57
2021/01/19 06:43:35;;;;;;;0.50;0.50;;;;;;;;;;4896596;28;106356;-58
2021/01/19 06:46:07;;;;;;;0.50;0.50;;;;;;;;;;4932138;28;105316;-57
2021/01/19 06:48:33;;;;;;;0.60;0.60;;;;;;;;;;4932350;28;105073;-58
2021/01/19 06:50:59;;;;;;;0.50;0.50;;;;;;;;;;4933735;28;105039;-55
2021/01/19 06:53:42;;;;;;;0.50;0.50;;;;;;;;;;4930627;28;105337;-59
2021/01/19 06:56:07;;;;;;;0.50;0.50;;;;;;;;;;4936006;28;105105;-58
2021/01/19 06:58:55;;;;;;;0.50;0.50;;;;;;;;;;4931655;28;106185;-57
2021/01/19 07:01:28;;;;;;;0.50;0.50;;;;;;;;;;4931196;28;104943;-57
2021/01/19 07:04:04;;;;;;;0.50;0.50;;;;;;;;;;4933049;28;106125;-57
2021/01/19 07:07:05;;;;;;;0.55;0.50;;;;;;;;;;4929954;28;106825;-58
2021/01/19 07:09:51;;;;;;;0.50;0.50;;;;;;;;;;4912454;28;105187;-58
2021/01/19 07:12:17;;;;;;;0.60;0.60;;;;;;;;;;4932161;28;105933;-58
2021/01/19 07:14:49;;;;;;;0.50;0.50;;;;;;;;;;4915748;28;105702;-58
2021/01/19 07:17:18;;;;;;;0.50;0.50;;;;;;;;;;4929278;28;105068;-58
2021/01/19 07:19:50;;;;;;;0.40;0.40;;;;;;;;;;4936060;28;105051;-57
2021/01/19 07:22:21;;;;;;;0.50;0.50;;;;;;;;;;4928292;28;104889;-57
2021/01/19 07:24:47;;;;;;;0.40;0.40;;;;;;;;;;4927645;28;105360;-58
2021/01/19 07:27:13;;;;;;;0.50;0.50;;;;;;;;;;4913877;28;108147;-57
2021/01/19 07:29:39;;;;;;;0.43;0.43;;;;;;;;;;4911614;28;105735;-58
2021/01/19 07:32:28;;;;;;;0.50;0.50;;;;;;;;;;4931967;28;105523;-58
2021/01/19 07:34:54;;;;;;;0.50;0.50;;;;;;;;;;4927786;28;105510;-57
2021/01/19 07:37:30;;;;;;;0.50;0.50;;;;;;;;;;4931752;28;105312;-57
2021/01/19 07:39:55;;;;;;;0.40;0.40;;;;;;;;;;4929303;28;105089;-57
2021/01/19 07:42:21;;;;;;;0.60;0.60;;;;;;;;;;4932438;28;105035;-57
2021/01/19 07:45:01;;;;;;;0.40;0.40;;;;;;;;;;4929737;28;105303;-58
2021/01/19 07:47:40;;;;;;;0.50;0.50;;;;;;;;;;4922708;28;105196;-58
2021/01/19 07:50:07;;;;;;;0.50;0.50;;;;;;;;;;4931111;28;105654;-58
2021/01/19 07:52:41;;;;;;;0.50;0.50;;;;;;;;;;4927696;28;105395;-56
2021/01/19 07:55:16;;;;;;;1.10;0.50;;;;;;;;;;4904726;28;107868;-57
2021/01/19 07:57:43;;;;;;;0.40;0.40;;;;;;;;;;4931960;28;105569;-57
2021/01/19 08:00:09;;;;;;;0.88;0.68;;;;;;;;;;4931607;28;105407;-58
2021/01/19 08:02:37;;;;;;;0.95;0.68;;;;;;;;;;4907777;28;105287;-58
2021/01/19 08:05:06;;;;;;;0.60;0.60;;;;;;;;;;4932779;28;106646;-59
2021/01/19 08:07:42;;;;;;;0.60;0.60;;;;;;;;;;4929809;28;105152;-58
2021/01/19 08:10:24;;;;;;;0.75;0.65;;;;;;;;;;4930461;28;106630;-57
2021/01/19 08:12:52;;;;;;;;;;;;;;;;;;4916524;28;105356;-58
2021/01/19 08:15:25;;;;;;;1.33;0.70;;;;;;;;;;4944711;28;105786;-57
2021/01/19 08:17:52;;;;;;;1.05;0.70;;;;;;;;;;4917368;28;105429;-57
2021/01/19 08:20:30;;;;;;;0.60;0.60;;;;;;;;;;4931440;28;105031;-57
2021/01/19 08:23:07;;;;;;;0.70;0.63;;;;;;;;;;4931816;28;105350;-57
2021/01/19 08:25:33;;;;;;;0.93;0.63;;;;;;;;;;4933686;28;105531;-57
2021/01/19 08:27:59;;;;;;;1.33;0.60;;;;;;;;;;4932371;28;116454;-57
2021/01/19 08:30:26;;;;;;;0.60;0.60;;;;;;;;;;4931716;28;105742;-57
2021/01/19 08:32:53;;;;;;;0.93;0.60;;;;;;;;;;4930791;28;104905;-57
2021/01/19 08:35:18;;;;;;;0.88;0.65;;;;;;;;;;4932050;28;105319;-57
2021/01/19 08:37:49;;;;;;;0.63;0.60;;;;;;;;;;4912169;28;105355;-57
2021/01/19 08:40:20;;;;;;;1.08;0.70;;;;;;;;;;4914753;28;105077;-56
2021/01/19 08:42:45;;;;;;;1.75;1.20;;;;;;;;;;4928763;28;104986;-57
2021/01/19 08:45:12;;;;;;;1.33;0.85;;;;;;;;;;4905912;28;107351;-58
2021/01/19 08:47:37;;;;;;;0.82;0.70;;;;;;;;;;4938857;28;104984;-57
2021/01/19 08:50:03;;;;;;;1.05;0.80;;;;;;;;;;4917726;28;105031;-57
2021/01/19 08:52:29;;;;;;;0.60;0.60;;;;;;;;;;4935644;28;104940;-57
2021/01/19 08:54:54;;;;;;;1.13;0.70;;;;;;;;;;4937066;28;104932;-56
2021/01/19 08:57:20;;;;;;;1.15;0.75;;;;;;;;;;4932520;28;105480;-57
2021/01/19 08:59:51;;;;;;;0.57;0.57;;;;;;;;;;4918278;28;105173;-56
2021/01/19 09:02:17;;;;;;;0.60;0.60;;;;;;;;;;4933881;28;105594;-58
2021/01/19 09:04:44;;;;;;;0.60;0.60;;;;;;;;;;4933005;28;105511;-58
2021/01/19 09:07:11;;;;;;;0.80;0.80;;;;;;;;;;4949444;28;104994;-58
2021/01/19 09:09:37;;;;;;;0.70;0.70;;;;;;;;;;4937304;28;104976;-58
2021/01/19 09:12:02;;;;;;;0.68;0.68;;;;;;;;;;4933677;28;105047;-58
2021/01/19 09:14:28;;;;;;;1.65;0.63;;;;;;;;;;4934068;28;105552;-58
2021/01/19 09:16:54;;;;;;;0.60;0.50;;;;;;;;;;4930824;28;105159;-58
2021/01/19 09:19:19;;;;;;;1.05;0.70;;;;;;;;;;4933746;28;105523;-58
2021/01/19 09:21:45;;;;;;;0.50;0.50;;;;;;;;;;4921793;28;105673;-56
2021/01/19 09:24:21;;;;;;;0.50;0.50;;;;;;;;;;4931841;28;105432;-55
2021/01/19 09:27:01;;;;;;;0.60;0.50;;;;;;;;;;4931251;28;105077;-56
2021/01/19 09:29:28;;;;;;;0.40;0.40;;;;;;;;;;4931899;28;105652;-56
2021/01/19 09:31:54;;;;;;;0.60;0.60;;;;;;;;;;4938521;28;105614;-57
2021/01/19 09:34:20;;;;;;;0.63;0.57;;;;;;;;;;4930989;28;105016;-57
2021/01/19 09:36:46;;;;;;;0.50;0.50;;;;;;;;;;4932539;28;105055;-56
2021/01/19 09:39:12;;;;;;;0.50;0.50;;;;;;;;;;4931736;28;105122;-58
2021/01/19 09:41:38;;;;;;;0.40;0.40;;;;;;;;;;4932357;28;104954;-57
2021/01/19 09:44:03;;;;;;;0.75;0.57;;;;;;;;;;4915530;28;105482;-61
2021/01/19 09:46:29;;;;;;;0.50;0.50;;;;;;;;;;4913734;28;105705;-56
2021/01/19 09:48:55;;;;;;;0.68;0.50;;;;;;;;;;4934734;28;105679;-56
2021/01/19 09:51:24;;;;;;;0.60;0.60;;;;;;;;;;4933100;28;106020;-57
2021/01/19 09:53:56;;;;;;;0.65;0.50;;;;;;;;;;4917254;28;105136;-56
2021/01/19 09:56:21;;;;;;;0.63;0.57;;;;;;;;;;4930819;28;105424;-56
2021/01/19 09:58:47;;;;;;;0.50;0.50;;;;;;;;;;4933570;28;105698;-57
2021/01/19 10:01:24;;;;;;;0.75;0.60;;;;;;;;;;4932330;28;109885;-58
2021/01/19 10:03:49;;;;;;;0.60;0.60;;;;;;;;;;4931386;28;105134;-57
2021/01/19 10:06:25;;;;;;;1.05;0.60;;;;;;;;;;4930679;28;105260;-55
2021/01/19 10:08:56;;;;;;;0.50;0.50;;;;;;;;;;4933327;28;105049;-57
2021/01/19 10:11:32;;;;;;;0.50;0.50;;;;;;;;;;4930401;28;105531;-57
2021/01/19 10:14:11;;;;;;;0.60;0.60;;;;;;;;;;4935205;28;105156;-59
2021/01/19 10:16:49;;;;;;;0.50;0.50;;;;;;;;;;4917399;28;105868;-65
2021/01/19 10:19:21;;;;;;;0.40;0.40;;;;;;;;;;4931227;28;105138;-63
2021/01/19 10:21:51;;;;;;;0.63;0.63;;;;;;;;;;4931638;28;105689;-61
2021/01/19 10:24:17;;;;;;;0.50;0.50;;;;;;;;;;4928832;28;106081;-54
2021/01/19 10:27:09;;;;;;;0.57;0.50;;;;;;;;;;4932902;28;105300;-58
2021/01/19 10:29:41;;;;;;;;;;;;;;;;;;4929054;28;106583;-58
2021/01/19 10:32:12;;;;;;;0.60;0.60;;;;;;;;;;4931271;28;105067;-57
2021/01/19 10:34:37;;;;;;;0.70;0.70;;;;;;;;;;4932077;28;105379;-59
2021/01/19 10:37:03;;;;;;;0.50;0.50;;;;;;;;;;4933585;28;106629;-57
2021/01/19 10:39:30;;;;;;;0.60;0.60;;;;;;;;;;4931733;28;105116;-57
2021/01/19 10:41:56;;;;;;;0.60;0.60;;;;;;;;;;4931343;28;105296;-57
2021/01/19 10:44:24;;;;;;;0.50;0.50;;;;;;;;;;4931562;28;105606;-57
2021/01/19 10:47:00;;;;;;;0.40;0.40;;;;;;;;;;4931190;28;105178;-59
2021/01/19 10:49:29;;;;;;;0.70;0.70;;;;;;;;;;4931444;28;105215;-59
2021/01/19 10:51:55;;;;;;;0.65;0.60;;;;;;;;;;4933021;28;108461;-56
2021/01/19 10:54:21;;;;;;;0.50;0.50;;;;;;;;;;4914591;28;105049;-55
2021/01/19 10:56:55;;;;;;;0.50;0.50;;;;;;;;;;4951234;22;106780;-55
2021/01/19 10:59:21;;;;;;;0.50;0.50;;;;;;;;;;4960323;28;105524;-55
2021/01/19 11:01:46;;;;;;;0.50;0.50;;;;;;;;;;4964764;28;105866;-59
2021/01/19 11:04:12;;;;;;;0.60;0.60;;;;;;;;;;4964394;28;105048;-59
2021/01/19 11:06:38;;;;;;;0.55;0.43;;;;;;;;;;4958699;28;105089;-57
2021/01/19 11:09:04;;;;;;;0.63;0.47;;;;;;;;;;4948777;28;105704;-58
2021/01/19 11:11:29;;;;;;;0.40;0.40;;;;;;;;;;4950073;28;105520;-58
2021/01/19 11:14:02;;;;;;;0.60;0.57;;;;;;;;;;4949353;28;105428;-59
2021/01/19 11:16:28;;;;;;;0.50;0.50;;;;;;;;;;4965486;28;105631;-58
2021/01/19 11:18:54;;;;;;;3.17;1.52;;;;;;;;;;4933723;28;105102;-55
2021/01/19 11:21:19;;;;;;;1.80;1.10;;;;;;;;;;4954657;28;105289;-61
2021/01/19 11:23:45;;;;;;;0.82;0.60;;;;;;;;;;4950353;28;105606;-61
2021/01/19 11:26:10;;;;;;;0.77;0.50;;;;;;;;;;4951921;28;105102;-59
2021/01/19 11:28:36;;;;;;;0.50;0.50;;;;;;;;;;4951259;28;105557;-56
2021/01/19 11:31:01;;;;;;;0.50;0.50;;;;;;;;;;4949994;28;105781;-53
2021/01/19 11:33:27;;;;;;;0.50;0.50;;;;;;;;;;4950501;28;105088;-50
2021/01/19 11:35:52;;;;;;;0.88;0.80;;;;;;;;;;4949854;28;119504;-54
2021/01/19 11:38:18;;;;;;;0.60;0.60;;;;;;;;;;4951029;28;105053;-55
2021/01/19 11:40:43;;;;;;;0.80;0.80;;;;;;;;;;4950499;28;104994;-52
2021/01/19 11:43:09;;;;;;;1.10;0.90;;;;;;;;;;4954745;28;105770;-51
2021/01/19 11:45:34;;;;;;;1.10;1.00;;;;;;;;;;4950348;28;105244;-50
2021/01/19 11:48:00;;;;;;;0.80;0.70;;;;;;;;;;4951984;28;104973;-51
2021/01/19 11:50:25;;;;;;;0.68;0.60;;;;;;;;;;4950209;28;104981;-51
2021/01/19 11:52:50;;;;;;;0.90;0.90;;;;;;;;;;4949567;28;105396;-49
2021/01/19 11:55:17;;;;;;;0.90;0.90;;;;;;;;;;4948554;28;105701;-50
2021/01/19 11:57:42;;;;;;;0.60;0.60;;;;;;;;;;4949989;28;105366;-52
2021/01/19 12:00:10;;;;;;;0.57;0.50;;;;;;;;;;4950563;28;105415;-51
2021/01/19 12:02:36;;;;;;;0.40;0.40;;;;;;;;;;4949673;28;105608;-52
2021/01/19 12:05:02;;;;;;;0.50;0.50;;;;;;;;;;4953851;28;104980;-53
2021/01/19 12:07:27;;;;;;;1.40;0.75;;;;;;;;;;4949656;28;105632;-58
2021/01/19 12:09:53;;;;;;;2.15;0.80;;;;;;;;;;4951211;28;105608;-58
2021/01/19 12:12:18;;;;;;;1.35;0.60;;;;;;;;;;4949434;28;105782;-56
2021/01/19 12:14:44;;;;;;;0.85;0.70;;;;;;;;;;4964834;28;106892;-53
2021/01/19 12:17:09;;;;;;;1.63;0.70;;;;;;;;;;4950431;28;105221;-50
2021/01/19 12:19:35;;;;;;;1.92;0.70;;;;;;;;;;4948299;28;105789;-49
2021/01/19 12:22:00;;;;;;;1.80;0.65;;;;;;;;;;4950809;28;107298;-51
2021/01/19 12:24:26;;;;;;;1.75;0.55;;;;;;;;;;4948890;28;105002;-51
2021/01/19 12:26:53;;;;;;;1.33;0.77;;;;;;;;;;4952291;28;105150;-50
2021/01/19 12:29:19;;;;;;;1.05;0.63;;;;;;;;;;4949971;28;104929;-51
2021/01/19 12:31:45;;;;;;;1.35;0.60;;;;;;;;;;4952413;28;104983;-54
2021/01/19 12:34:10;;;;;;;1.60;0.60;;;;;;;;;;4952000;28;105011;-55
2021/01/19 12:36:36;;;;;;;1.63;0.60;;;;;;;;;;4952775;28;105602;-56
2021/01/19 12:39:02;;;;;;;1.13;0.70;;;;;;;;;;4954064;28;105078;-56
2021/01/19 12:41:28;;;;;;;2.67;0.80;;;;;;;;;;4954755;28;105650;-54
2021/01/19 12:43:53;;;;;;;0.65;0.57;;;;;;;;;;4953438;28;105437;-55
2021/01/19 12:46:20;;;;;;;2.30;0.75;;;;;;;;;;4955095;28;105162;-52
2021/01/19 12:48:45;;;;;;;0.82;0.68;;;;;;;;;;4967067;28;107518;-55
2021/01/19 12:51:17;;;;;;;1.20;0.63;;;;;;;;;;4955029;28;105061;-53
2021/01/19 12:53:42;;;;;;;;;;;;;;;;;;4968775;28;105297;-51
2021/01/19 12:56:11;;;;;;;0.70;0.50;;;;;;;;;;4950394;28;105906;-53
2021/01/19 12:58:37;;;;;;;0.50;0.50;;;;;;;;;;4931919;28;105003;-54
2021/01/19 13:01:03;;;;;;;0.80;0.50;;;;;;;;;;4950591;28;105017;-56
2021/01/19 13:03:28;;;;;;;1.27;0.55;;;;;;;;;;4952068;28;105016;-52
2021/01/19 13:05:54;;;;;;;0.98;0.50;;;;;;;;;;4950589;28;105592;-55
2021/01/19 13:08:22;;;;;;;0.40;0.40;;;;;;;;;;4951631;28;105038;-55
2021/01/19 13:10:47;;;;;;;0.60;0.60;;;;;;;;;;4952646;28;104966;-54
2021/01/19 13:13:13;;;;;;;0.88;0.40;;;;;;;;;;4968005;28;108519;-51
2021/01/19 13:15:39;;;;;;;0.73;0.47;;;;;;;;;;4951826;28;105399;-52
2021/01/19 13:18:06;;;;;;;0.60;0.60;;;;;;;;;;4933097;28;105011;-50
2021/01/19 13:20:31;;;;;;;0.40;0.40;;;;;;;;;;4953743;28;105605;-55
2021/01/19 13:22:56;;;;;;;0.63;0.60;;;;;;;;;;4953193;28;105604;-54
2021/01/19 13:25:22;;;;;;;0.45;0.40;;;;;;;;;;4968578;28;105147;-53
2021/01/19 13:27:47;;;;;;;1.45;0.70;;;;;;;;;;4946155;28;107142;-54
2021/01/19 13:30:13;;;;;;;0.60;0.60;;;;;;;;;;4956020;28;105989;-52
2021/01/19 13:32:39;;;;;;;0.80;0.75;;;;;;;;;;4952447;28;105668;-53
2021/01/19 13:35:05;;;;;;;1.83;1.23;;;;;;;;;;4956542;28;105061;-56
2021/01/19 13:37:30;;;;;;;0.85;0.73;;;;;;;;;;4950866;28;105138;-53
2021/01/19 13:39:56;;;;;;;0.60;0.60;;;;;;;;;;4968570;28;105074;-53
2021/01/19 13:42:21;;;;;;;0.50;0.50;;;;;;;;;;4954748;28;105433;-54
2021/01/19 13:44:47;;;;;;;1.13;0.80;;;;;;;;;;4954692;28;105177;-53
2021/01/19 13:47:12;;;;;;;0.70;0.60;;;;;;;;;;4956135;28;111945;-52
2021/01/19 13:49:38;;;;;;;0.40;0.40;;;;;;;;;;4955879;28;104899;-52
2021/01/19 13:52:03;;;;;;;1.30;0.73;;;;;;;;;;4970184;28;105314;-52
2021/01/19 13:54:29;;;;;;;0.60;0.60;;;;;;;;;;4955570;28;105255;-54
2021/01/19 13:56:56;;;;;;;0.88;0.70;;;;;;;;;;4951102;28;105102;-55
2021/01/19 13:59:21;;;;;;;0.70;0.70;;;;;;;;;;4951159;28;105411;-55
2021/01/19 14:01:47;;;;;;;1.65;0.63;;;;;;;;;;4951816;28;105723;-51
2021/01/19 14:04:13;;;;;;;0.80;0.80;;;;;;;;;;4954483;28;105012;-51
2021/01/19 14:06:39;;;;;;;1.50;1.27;;;;;;;;;;4953577;28;104940;-53
2021/01/19 14:09:04;;;;;;;1.10;1.00;;;;;;;;;;4952826;28;105060;-52
2021/01/19 14:11:30;;;;;;;0.93;0.82;;;;;;;;;;4952508;28;105159;-54
2021/01/19 14:13:56;;;;;;;1.02;0.90;;;;;;;;;;4955721;28;105577;-52
2021/01/19 14:16:22;;;;;;;1.17;0.85;;;;;;;;;;4951561;28;105225;-51
2021/01/19 14:18:47;;;;;;;1.60;1.08;;;;;;;;;;4951645;28;104988;-56
2021/01/19 14:21:16;;;;;;;1.20;1.10;;;;;;;;;;4951915;28;115192;-54
2021/01/19 14:23:42;;;;;;;1.00;0.90;;;;;;;;;;4951739;28;105060;-52
2021/01/19 14:26:07;;;;;;;1.52;1.02;;;;;;;;;;4602411;28;10000014;-52
2021/01/19 14:28:33;;;;;;;0.85;0.80;;;;;;;;;;4949653;28;105065;-54
2021/01/19 14:30:58;;;;;;;0.63;0.63;;;;;;;;;;4953118;28;105113;-52
2021/01/19 14:33:24;;;;;;;0.50;0.50;;;;;;;;;;4951902;28;105098;-51
2021/01/19 14:35:52;;;;;;;0.73;0.70;;;;;;;;;;4955247;28;105240;-54
2021/01/19 14:38:20;;;;;;;0.47;0.47;;;;;;;;;;4951054;28;104969;-55